sensor_id;sensor_type;location;lat;lon;timestamp;P1;durP1;ratioP1;P2;durP2;ratioP2
7383;SDS011;3733;47.994;8.820;2023-07-24T00:01:50;14.77;;;7.90;;
7383;SDS011;3733;47.994;8.820;2023-07-24T00:04:16;17.83;;;8.90;;
7383;SDS011;3733;47.994;8.820;2023-07-24T00:06:41;14.93;;;8.20;;
7383;SDS011;3733;47.994;8.820;2023-07-24T00:09:07;19.13;;;8.57;;
7383;SDS011;3733;47.994;8.820;2023-07-24T00:11:32;15.13;;;8.77;;
7383;SDS011;3733;47.994;8.820;2023-07-24T00:13:58;14.47;;;8.13;;
7383;SDS011;3733;47.994;8.820;2023-07-24T00:16:23;14.87;;;8.23;;
7383;SDS011;3733;47.994;8.820;2023-07-24T00:18:49;15.73;;;8.27;;
7383;SDS011;3733;47.994;8.820;2023-07-24T00:21:15;17.40;;;9.43;;
7383;SDS011;3733;47.994;8.820;2023-07-24T00:23:40;14.20;;;7.43;;
7383;SDS011;3733;47.994;8.820;2023-07-24T00:26:06;13.47;;;7.97;;
7383;SDS011;3733;47.994;8.820;2023-07-24T00:28:32;13.13;;;7.70;;
7383;SDS011;3733;47.994;8.820;2023-07-24T00:30:58;15.67;;;8.53;;
7383;SDS011;3733;47.994;8.820;2023-07-24T00:33:23;10.10;;;7.37;;
7383;SDS011;3733;47.994;8.820;2023-07-24T00:35:49;14.53;;;8.47;;
7383;SDS011;3733;47.994;8.820;2023-07-24T00:38:15;13.97;;;8.10;;
7383;SDS011;3733;47.994;8.820;2023-07-24T00:40:40;13.00;;;7.80;;
7383;SDS011;3733;47.994;8.820;2023-07-24T00:43:06;13.53;;;8.40;;
7383;SDS011;3733;47.994;8.820;2023-07-24T00:45:31;15.03;;;7.97;;
7383;SDS011;3733;47.994;8.820;2023-07-24T00:47:58;12.20;;;7.77;;
7383;SDS011;3733;47.994;8.820;2023-07-24T00:50:25;12.47;;;7.37;;
7383;SDS011;3733;47.994;8.820;2023-07-24T00:52:51;16.43;;;8.30;;
7383;SDS011;3733;47.994;8.820;2023-07-24T00:55:17;15.27;;;8.80;;
7383;SDS011;3733;47.994;8.820;2023-07-24T00:57:43;16.13;;;8.70;;
7383;SDS011;3733;47.994;8.820;2023-07-24T01:00:10;11.97;;;8.00;;
7383;SDS011;3733;47.994;8.820;2023-07-24T01:02:36;16.53;;;8.30;;
7383;SDS011;3733;47.994;8.820;2023-07-24T01:05:03;19.13;;;8.90;;
7383;SDS011;3733;47.994;8.820;2023-07-24T01:07:29;25.77;;;10.57;;
7383;SDS011;3733;47.994;8.820;2023-07-24T01:09:55;22.00;;;9.43;;
7383;SDS011;3733;47.994;8.820;2023-07-24T01:12:35;19.10;;;10.53;;
7383;SDS011;3733;47.994;8.820;2023-07-24T01:15:19;18.17;;;10.07;;
7383;SDS011;3733;47.994;8.820;2023-07-24T01:18:00;18.03;;;10.30;;
7383;SDS011;3733;47.994;8.820;2023-07-24T01:20:33;18.10;;;9.33;;
7383;SDS011;3733;47.994;8.820;2023-07-24T01:26:05;16.07;;;10.13;;
7383;SDS011;3733;47.994;8.820;2023-07-24T01:28:32;24.17;;;9.87;;
7383;SDS011;3733;47.994;8.820;2023-07-24T01:30:58;18.23;;;9.30;;
7383;SDS011;3733;47.994;8.820;2023-07-24T01:33:24;21.90;;;9.53;;
7383;SDS011;3733;47.994;8.820;2023-07-24T01:35:51;19.60;;;9.13;;
7383;SDS011;3733;47.994;8.820;2023-07-24T01:38:23;19.10;;;10.20;;
7383;SDS011;3733;47.994;8.820;2023-07-24T01:40:50;20.40;;;10.63;;
7383;SDS011;3733;47.994;8.820;2023-07-24T01:43:18;19.10;;;10.87;;
7383;SDS011;3733;47.994;8.820;2023-07-24T01:45:44;18.57;;;9.67;;
7383;SDS011;3733;47.994;8.820;2023-07-24T01:48:09;17.20;;;9.67;;
7383;SDS011;3733;47.994;8.820;2023-07-24T01:50:35;19.80;;;10.57;;
7383;SDS011;3733;47.994;8.820;2023-07-24T01:53:00;15.30;;;8.70;;
7383;SDS011;3733;47.994;8.820;2023-07-24T01:55:26;18.70;;;10.13;;
7383;SDS011;3733;47.994;8.820;2023-07-24T01:57:51;16.50;;;9.53;;
7383;SDS011;3733;47.994;8.820;2023-07-24T02:00:17;24.20;;;9.60;;
7383;SDS011;3733;47.994;8.820;2023-07-24T02:02:43;20.50;;;9.83;;
7383;SDS011;3733;47.994;8.820;2023-07-24T02:05:08;17.57;;;10.37;;
7383;SDS011;3733;47.994;8.820;2023-07-24T02:07:34;16.53;;;9.00;;
7383;SDS011;3733;47.994;8.820;2023-07-24T02:09:59;16.53;;;9.73;;
7383;SDS011;3733;47.994;8.820;2023-07-24T02:12:25;22.20;;;10.27;;
7383;SDS011;3733;47.994;8.820;2023-07-24T02:14:51;20.27;;;10.70;;
7383;SDS011;3733;47.994;8.820;2023-07-24T02:17:17;14.63;;;9.90;;
7383;SDS011;3733;47.994;8.820;2023-07-24T02:19:43;18.23;;;9.87;;
7383;SDS011;3733;47.994;8.820;2023-07-24T02:22:09;20.47;;;9.87;;
7383;SDS011;3733;47.994;8.820;2023-07-24T02:24:35;14.63;;;8.67;;
7383;SDS011;3733;47.994;8.820;2023-07-24T02:27:01;16.40;;;10.13;;
7383;SDS011;3733;47.994;8.820;2023-07-24T02:29:27;20.60;;;10.30;;
7383;SDS011;3733;47.994;8.820;2023-07-24T02:31:56;19.80;;;10.17;;
7383;SDS011;3733;47.994;8.820;2023-07-24T02:34:22;19.87;;;9.80;;
7383;SDS011;3733;47.994;8.820;2023-07-24T02:36:51;18.17;;;10.10;;
7383;SDS011;3733;47.994;8.820;2023-07-24T02:39:17;19.30;;;10.43;;
7383;SDS011;3733;47.994;8.820;2023-07-24T02:41:43;17.30;;;10.50;;
7383;SDS011;3733;47.994;8.820;2023-07-24T02:44:08;17.73;;;9.97;;
7383;SDS011;3733;47.994;8.820;2023-07-24T02:46:34;18.00;;;9.93;;
7383;SDS011;3733;47.994;8.820;2023-07-24T02:48:59;14.83;;;9.23;;
7383;SDS011;3733;47.994;8.820;2023-07-24T02:51:25;20.47;;;10.13;;
7383;SDS011;3733;47.994;8.820;2023-07-24T02:53:51;21.33;;;10.30;;
7383;SDS011;3733;47.994;8.820;2023-07-24T02:56:17;20.23;;;11.00;;
7383;SDS011;3733;47.994;8.820;2023-07-24T02:58:43;24.70;;;10.87;;
7383;SDS011;3733;47.994;8.820;2023-07-24T03:01:08;18.50;;;10.47;;
7383;SDS011;3733;47.994;8.820;2023-07-24T03:03:35;19.43;;;10.30;;
7383;SDS011;3733;47.994;8.820;2023-07-24T03:06:01;18.50;;;9.90;;
7383;SDS011;3733;47.994;8.820;2023-07-24T03:08:26;19.30;;;11.17;;
7383;SDS011;3733;47.994;8.820;2023-07-24T03:10:52;16.93;;;9.90;;
7383;SDS011;3733;47.994;8.820;2023-07-24T03:13:18;18.17;;;9.93;;
7383;SDS011;3733;47.994;8.820;2023-07-24T03:15:50;17.37;;;10.00;;
7383;SDS011;3733;47.994;8.820;2023-07-24T03:18:20;16.20;;;9.90;;
7383;SDS011;3733;47.994;8.820;2023-07-24T03:20:46;16.83;;;9.70;;
7383;SDS011;3733;47.994;8.820;2023-07-24T03:23:11;21.60;;;10.10;;
7383;SDS011;3733;47.994;8.820;2023-07-24T03:25:37;16.33;;;9.70;;
7383;SDS011;3733;47.994;8.820;2023-07-24T03:28:02;15.83;;;9.57;;
7383;SDS011;3733;47.994;8.820;2023-07-24T03:30:28;18.10;;;10.27;;
7383;SDS011;3733;47.994;8.820;2023-07-24T03:32:54;18.27;;;10.20;;
7383;SDS011;3733;47.994;8.820;2023-07-24T03:35:19;16.40;;;9.80;;
7383;SDS011;3733;47.994;8.820;2023-07-24T03:37:45;18.57;;;9.23;;
7383;SDS011;3733;47.994;8.820;2023-07-24T03:40:11;18.03;;;9.40;;
7383;SDS011;3733;47.994;8.820;2023-07-24T03:42:37;14.30;;;8.77;;
7383;SDS011;3733;47.994;8.820;2023-07-24T03:45:02;18.70;;;9.40;;
7383;SDS011;3733;47.994;8.820;2023-07-24T03:47:28;14.40;;;8.87;;
7383;SDS011;3733;47.994;8.820;2023-07-24T03:49:54;19.60;;;10.20;;
7383;SDS011;3733;47.994;8.820;2023-07-24T03:52:20;16.10;;;9.30;;
7383;SDS011;3733;47.994;8.820;2023-07-24T03:54:46;14.80;;;8.87;;
7383;SDS011;3733;47.994;8.820;2023-07-24T03:57:11;19.83;;;9.23;;
7383;SDS011;3733;47.994;8.820;2023-07-24T03:59:37;22.90;;;9.90;;
7383;SDS011;3733;47.994;8.820;2023-07-24T04:02:03;16.30;;;9.70;;
7383;SDS011;3733;47.994;8.820;2023-07-24T04:04:29;14.70;;;9.13;;
7383;SDS011;3733;47.994;8.820;2023-07-24T04:06:54;19.20;;;8.97;;
7383;SDS011;3733;47.994;8.820;2023-07-24T04:09:20;16.80;;;9.70;;
7383;SDS011;3733;47.994;8.820;2023-07-24T04:11:45;17.90;;;9.70;;
7383;SDS011;3733;47.994;8.820;2023-07-24T04:14:11;19.93;;;11.33;;
7383;SDS011;3733;47.994;8.820;2023-07-24T04:16:36;18.73;;;9.77;;
7383;SDS011;3733;47.994;8.820;2023-07-24T04:19:02;17.37;;;9.60;;
7383;SDS011;3733;47.994;8.820;2023-07-24T04:21:28;17.03;;;9.53;;
7383;SDS011;3733;47.994;8.820;2023-07-24T04:23:54;15.97;;;9.20;;
7383;SDS011;3733;47.994;8.820;2023-07-24T04:26:20;20.37;;;10.77;;
7383;SDS011;3733;47.994;8.820;2023-07-24T04:28:45;15.80;;;9.90;;
7383;SDS011;3733;47.994;8.820;2023-07-24T04:31:11;17.67;;;10.30;;
7383;SDS011;3733;47.994;8.820;2023-07-24T04:33:36;17.37;;;10.17;;
7383;SDS011;3733;47.994;8.820;2023-07-24T04:36:03;18.53;;;10.30;;
7383;SDS011;3733;47.994;8.820;2023-07-24T04:38:28;20.03;;;10.23;;
7383;SDS011;3733;47.994;8.820;2023-07-24T04:40:54;19.60;;;10.30;;
7383;SDS011;3733;47.994;8.820;2023-07-24T04:43:20;19.70;;;10.10;;
7383;SDS011;3733;47.994;8.820;2023-07-24T04:45:45;17.30;;;10.00;;
7383;SDS011;3733;47.994;8.820;2023-07-24T04:48:11;17.63;;;10.67;;
7383;SDS011;3733;47.994;8.820;2023-07-24T04:50:36;20.07;;;11.10;;
7383;SDS011;3733;47.994;8.820;2023-07-24T04:53:02;20.13;;;11.10;;
7383;SDS011;3733;47.994;8.820;2023-07-24T04:55:27;15.97;;;10.13;;
7383;SDS011;3733;47.994;8.820;2023-07-24T04:57:53;17.60;;;10.13;;
7383;SDS011;3733;47.994;8.820;2023-07-24T05:00:19;19.53;;;9.83;;
7383;SDS011;3733;47.994;8.820;2023-07-24T05:02:44;19.83;;;10.90;;
7383;SDS011;3733;47.994;8.820;2023-07-24T05:05:10;18.97;;;10.00;;
7383;SDS011;3733;47.994;8.820;2023-07-24T05:07:36;18.47;;;9.10;;
7383;SDS011;3733;47.994;8.820;2023-07-24T05:10:01;18.67;;;9.17;;
7383;SDS011;3733;47.994;8.820;2023-07-24T05:12:27;15.87;;;8.37;;
7383;SDS011;3733;47.994;8.820;2023-07-24T05:14:52;16.40;;;9.73;;
7383;SDS011;3733;47.994;8.820;2023-07-24T05:17:18;15.00;;;9.20;;
7383;SDS011;3733;47.994;8.820;2023-07-24T05:19:44;20.50;;;8.87;;
7383;SDS011;3733;47.994;8.820;2023-07-24T05:22:09;16.10;;;9.20;;
7383;SDS011;3733;47.994;8.820;2023-07-24T05:24:35;19.00;;;9.13;;
7383;SDS011;3733;47.994;8.820;2023-07-24T05:27:02;15.90;;;9.50;;
7383;SDS011;3733;47.994;8.820;2023-07-24T05:29:28;16.30;;;8.77;;
7383;SDS011;3733;47.994;8.820;2023-07-24T05:31:54;18.30;;;9.70;;
7383;SDS011;3733;47.994;8.820;2023-07-24T05:34:20;16.87;;;9.00;;
7383;SDS011;3733;47.994;8.820;2023-07-24T05:36:45;18.03;;;9.20;;
7383;SDS011;3733;47.994;8.820;2023-07-24T05:39:11;16.77;;;8.50;;
7383;SDS011;3733;47.994;8.820;2023-07-24T05:41:36;20.60;;;9.30;;
7383;SDS011;3733;47.994;8.820;2023-07-24T05:44:02;17.67;;;8.70;;
7383;SDS011;3733;47.994;8.820;2023-07-24T05:46:27;19.90;;;10.47;;
7383;SDS011;3733;47.994;8.820;2023-07-24T05:48:53;15.77;;;8.03;;
7383;SDS011;3733;47.994;8.820;2023-07-24T05:51:19;17.60;;;8.30;;
7383;SDS011;3733;47.994;8.820;2023-07-24T05:53:44;16.73;;;9.20;;
7383;SDS011;3733;47.994;8.820;2023-07-24T05:56:10;14.57;;;8.50;;
7383;SDS011;3733;47.994;8.820;2023-07-24T05:58:35;14.70;;;8.40;;
7383;SDS011;3733;47.994;8.820;2023-07-24T06:01:01;16.20;;;8.20;;
7383;SDS011;3733;47.994;8.820;2023-07-24T06:03:27;15.93;;;7.37;;
7383;SDS011;3733;47.994;8.820;2023-07-24T06:05:53;19.80;;;7.37;;
7383;SDS011;3733;47.994;8.820;2023-07-24T06:08:19;13.03;;;7.00;;
7383;SDS011;3733;47.994;8.820;2023-07-24T06:10:49;11.90;;;7.23;;
7383;SDS011;3733;47.994;8.820;2023-07-24T06:13:15;14.10;;;7.53;;
7383;SDS011;3733;47.994;8.820;2023-07-24T06:15:42;13.10;;;7.73;;
7383;SDS011;3733;47.994;8.820;2023-07-24T06:18:08;11.97;;;7.40;;
7383;SDS011;3733;47.994;8.820;2023-07-24T06:20:34;12.70;;;7.90;;
7383;SDS011;3733;47.994;8.820;2023-07-24T06:22:59;14.27;;;7.47;;
7383;SDS011;3733;47.994;8.820;2023-07-24T06:25:25;14.40;;;8.07;;
7383;SDS011;3733;47.994;8.820;2023-07-24T06:27:50;12.97;;;8.10;;
7383;SDS011;3733;47.994;8.820;2023-07-24T06:30:16;14.43;;;8.27;;
7383;SDS011;3733;47.994;8.820;2023-07-24T06:32:42;17.00;;;8.60;;
7383;SDS011;3733;47.994;8.820;2023-07-24T06:35:08;14.87;;;8.20;;
7383;SDS011;3733;47.994;8.820;2023-07-24T06:37:33;14.87;;;7.83;;
7383;SDS011;3733;47.994;8.820;2023-07-24T06:39:59;14.07;;;8.43;;
7383;SDS011;3733;47.994;8.820;2023-07-24T06:42:25;17.03;;;8.70;;
7383;SDS011;3733;47.994;8.820;2023-07-24T06:44:50;14.33;;;9.10;;
7383;SDS011;3733;47.994;8.820;2023-07-24T06:47:16;25.43;;;9.67;;
7383;SDS011;3733;47.994;8.820;2023-07-24T06:49:41;13.00;;;8.10;;
7383;SDS011;3733;47.994;8.820;2023-07-24T06:52:07;11.17;;;7.43;;
7383;SDS011;3733;47.994;8.820;2023-07-24T06:54:33;11.50;;;7.03;;
7383;SDS011;3733;47.994;8.820;2023-07-24T06:56:58;11.60;;;6.73;;
7383;SDS011;3733;47.994;8.820;2023-07-24T06:59:24;10.63;;;6.77;;
7383;SDS011;3733;47.994;8.820;2023-07-24T07:01:49;10.57;;;6.57;;
7383;SDS011;3733;47.994;8.820;2023-07-24T07:04:15;14.30;;;6.17;;
7383;SDS011;3733;47.994;8.820;2023-07-24T07:06:41;11.37;;;7.27;;
7383;SDS011;3733;47.994;8.820;2023-07-24T07:09:07;12.27;;;7.33;;
7383;SDS011;3733;47.994;8.820;2023-07-24T07:11:32;14.57;;;7.53;;
7383;SDS011;3733;47.994;8.820;2023-07-24T07:13:58;15.93;;;7.63;;
7383;SDS011;3733;47.994;8.820;2023-07-24T07:16:23;11.20;;;6.90;;
7383;SDS011;3733;47.994;8.820;2023-07-24T07:18:49;10.63;;;6.27;;
7383;SDS011;3733;47.994;8.820;2023-07-24T07:21:15;11.67;;;6.53;;
7383;SDS011;3733;47.994;8.820;2023-07-24T07:23:40;8.63;;;6.23;;
7383;SDS011;3733;47.994;8.820;2023-07-24T07:26:06;12.90;;;6.40;;
7383;SDS011;3733;47.994;8.820;2023-07-24T07:28:31;11.47;;;6.97;;
7383;SDS011;3733;47.994;8.820;2023-07-24T07:30:57;22.23;;;7.20;;
7383;SDS011;3733;47.994;8.820;2023-07-24T07:33:22;11.47;;;6.87;;
7383;SDS011;3733;47.994;8.820;2023-07-24T07:35:49;13.63;;;5.60;;
7383;SDS011;3733;47.994;8.820;2023-07-24T07:38:15;10.47;;;6.30;;
7383;SDS011;3733;47.994;8.820;2023-07-24T07:40:41;11.90;;;6.67;;
7383;SDS011;3733;47.994;8.820;2023-07-24T07:43:06;18.40;;;6.90;;
7383;SDS011;3733;47.994;8.820;2023-07-24T07:45:32;11.97;;;6.60;;
7383;SDS011;3733;47.994;8.820;2023-07-24T07:47:58;10.00;;;6.30;;
7383;SDS011;3733;47.994;8.820;2023-07-24T07:50:24;14.13;;;6.03;;
7383;SDS011;3733;47.994;8.820;2023-07-24T07:52:50;13.13;;;5.57;;
7383;SDS011;3733;47.994;8.820;2023-07-24T07:55:16;9.83;;;5.67;;
7383;SDS011;3733;47.994;8.820;2023-07-24T07:57:45;11.20;;;6.17;;
7383;SDS011;3733;47.994;8.820;2023-07-24T08:00:11;14.27;;;5.80;;
7383;SDS011;3733;47.994;8.820;2023-07-24T08:02:37;9.27;;;6.13;;
7383;SDS011;3733;47.994;8.820;2023-07-24T08:05:07;17.20;;;6.70;;
7383;SDS011;3733;47.994;8.820;2023-07-24T08:07:33;14.77;;;7.17;;
7383;SDS011;3733;47.994;8.820;2023-07-24T08:09:58;11.43;;;5.73;;
7383;SDS011;3733;47.994;8.820;2023-07-24T08:12:24;10.83;;;5.77;;
7383;SDS011;3733;47.994;8.820;2023-07-24T08:14:50;11.50;;;6.40;;
7383;SDS011;3733;47.994;8.820;2023-07-24T08:17:15;7.40;;;4.90;;
7383;SDS011;3733;47.994;8.820;2023-07-24T08:19:41;13.57;;;6.90;;
7383;SDS011;3733;47.994;8.820;2023-07-24T08:22:06;9.63;;;6.20;;
7383;SDS011;3733;47.994;8.820;2023-07-24T08:24:35;16.47;;;8.00;;
7383;SDS011;3733;47.994;8.820;2023-07-24T08:27:01;12.50;;;7.10;;
7383;SDS011;3733;47.994;8.820;2023-07-24T08:29:27;10.20;;;6.30;;
7383;SDS011;3733;47.994;8.820;2023-07-24T08:31:52;13.00;;;6.77;;
7383;SDS011;3733;47.994;8.820;2023-07-24T08:34:18;14.70;;;6.50;;
7383;SDS011;3733;47.994;8.820;2023-07-24T08:36:44;10.63;;;6.77;;
7383;SDS011;3733;47.994;8.820;2023-07-24T08:39:09;9.60;;;6.57;;
7383;SDS011;3733;47.994;8.820;2023-07-24T08:41:36;9.73;;;6.80;;
7383;SDS011;3733;47.994;8.820;2023-07-24T08:44:02;12.93;;;7.17;;
7383;SDS011;3733;47.994;8.820;2023-07-24T08:46:30;10.77;;;5.70;;
7383;SDS011;3733;47.994;8.820;2023-07-24T08:49:00;9.60;;;5.47;;
7383;SDS011;3733;47.994;8.820;2023-07-24T08:51:26;10.90;;;6.40;;
7383;SDS011;3733;47.994;8.820;2023-07-24T08:53:52;9.43;;;6.40;;
7383;SDS011;3733;47.994;8.820;2023-07-24T08:56:19;9.40;;;6.47;;
7383;SDS011;3733;47.994;8.820;2023-07-24T08:58:44;10.57;;;6.20;;
7383;SDS011;3733;47.994;8.820;2023-07-24T09:01:10;11.60;;;6.30;;
7383;SDS011;3733;47.994;8.820;2023-07-24T09:03:36;9.50;;;5.80;;
7383;SDS011;3733;47.994;8.820;2023-07-24T09:06:02;10.53;;;5.90;;
7383;SDS011;3733;47.994;8.820;2023-07-24T09:08:41;13.17;;;5.87;;
7383;SDS011;3733;47.994;8.820;2023-07-24T09:11:09;13.13;;;6.60;;
7383;SDS011;3733;47.994;8.820;2023-07-24T09:13:35;9.97;;;6.03;;
7383;SDS011;3733;47.994;8.820;2023-07-24T09:16:03;10.63;;;5.60;;
7383;SDS011;3733;47.994;8.820;2023-07-24T09:18:44;9.10;;;5.93;;
7383;SDS011;3733;47.994;8.820;2023-07-24T09:21:10;9.50;;;5.20;;
7383;SDS011;3733;47.994;8.820;2023-07-24T09:23:38;10.07;;;5.23;;
7383;SDS011;3733;47.994;8.820;2023-07-24T09:26:08;9.50;;;5.70;;
7383;SDS011;3733;47.994;8.820;2023-07-24T09:28:35;11.87;;;6.10;;
7383;SDS011;3733;47.994;8.820;2023-07-24T09:31:01;11.10;;;7.47;;
7383;SDS011;3733;47.994;8.820;2023-07-24T09:36:02;11.60;;;5.93;;
7383;SDS011;3733;47.994;8.820;2023-07-24T09:38:28;9.70;;;5.37;;
7383;SDS011;3733;47.994;8.820;2023-07-24T09:40:55;11.13;;;6.50;;
7383;SDS011;3733;47.994;8.820;2023-07-24T09:43:25;10.73;;;5.77;;
7383;SDS011;3733;47.994;8.820;2023-07-24T09:45:53;8.90;;;5.77;;
7383;SDS011;3733;47.994;8.820;2023-07-24T09:48:20;10.10;;;5.57;;
7383;SDS011;3733;47.994;8.820;2023-07-24T09:50:48;11.70;;;6.57;;
7383;SDS011;3733;47.994;8.820;2023-07-24T09:53:33;9.43;;;6.50;;
7383;SDS011;3733;47.994;8.820;2023-07-24T09:56:05;15.90;;;8.90;;
7383;SDS011;3733;47.994;8.820;2023-07-24T09:58:32;13.80;;;7.10;;
7383;SDS011;3733;47.994;8.820;2023-07-24T10:01:00;14.60;;;7.93;;
7383;SDS011;3733;47.994;8.820;2023-07-24T10:03:28;19.93;;;8.63;;
7383;SDS011;3733;47.994;8.820;2023-07-24T10:05:55;14.90;;;8.57;;
7383;SDS011;3733;47.994;8.820;2023-07-24T10:08:21;14.30;;;8.27;;
7383;SDS011;3733;47.994;8.820;2023-07-24T10:10:47;12.03;;;7.10;;
7383;SDS011;3733;47.994;8.820;2023-07-24T10:13:16;21.23;;;6.93;;
7383;SDS011;3733;47.994;8.820;2023-07-24T10:15:43;15.47;;;6.20;;
7383;SDS011;3733;47.994;8.820;2023-07-24T10:18:11;9.13;;;5.00;;
7383;SDS011;3733;47.994;8.820;2023-07-24T10:20:38;7.30;;;4.13;;
7383;SDS011;3733;47.994;8.820;2023-07-24T10:23:06;6.90;;;3.50;;
7383;SDS011;3733;47.994;8.820;2023-07-24T10:25:36;9.67;;;3.90;;
7383;SDS011;3733;47.994;8.820;2023-07-24T10:28:07;8.10;;;4.43;;
7383;SDS011;3733;47.994;8.820;2023-07-24T10:30:39;9.83;;;4.73;;
7383;SDS011;3733;47.994;8.820;2023-07-24T10:33:13;7.63;;;4.23;;
7383;SDS011;3733;47.994;8.820;2023-07-24T10:35:43;8.37;;;4.80;;
7383;SDS011;3733;47.994;8.820;2023-07-24T10:38:12;8.97;;;4.07;;
7383;SDS011;3733;47.994;8.820;2023-07-24T10:40:42;6.43;;;4.33;;
7383;SDS011;3733;47.994;8.820;2023-07-24T10:43:10;7.70;;;4.50;;
7383;SDS011;3733;47.994;8.820;2023-07-24T10:45:56;7.80;;;4.67;;
7383;SDS011;3733;47.994;8.820;2023-07-24T10:48:23;10.87;;;4.50;;
7383;SDS011;3733;47.994;8.820;2023-07-24T10:50:50;7.20;;;4.13;;
7383;SDS011;3733;47.994;8.820;2023-07-24T10:53:17;8.87;;;4.80;;
7383;SDS011;3733;47.994;8.820;2023-07-24T10:55:44;7.90;;;4.50;;
7383;SDS011;3733;47.994;8.820;2023-07-24T10:58:12;10.53;;;5.40;;
7383;SDS011;3733;47.994;8.820;2023-07-24T11:00:39;9.47;;;4.70;;
7383;SDS011;3733;47.994;8.820;2023-07-24T11:03:08;9.60;;;4.80;;
7383;SDS011;3733;47.994;8.820;2023-07-24T11:05:38;7.37;;;4.17;;
7383;SDS011;3733;47.994;8.820;2023-07-24T11:08:08;9.30;;;4.60;;
7383;SDS011;3733;47.994;8.820;2023-07-24T11:10:52;5.30;;;3.77;;
7383;SDS011;3733;47.994;8.820;2023-07-24T11:13:21;5.57;;;3.87;;
7383;SDS011;3733;47.994;8.820;2023-07-24T11:15:51;10.83;;;4.80;;
7383;SDS011;3733;47.994;8.820;2023-07-24T11:18:17;5.63;;;4.37;;
7383;SDS011;3733;47.994;8.820;2023-07-24T11:20:47;8.60;;;4.33;;
7383;SDS011;3733;47.994;8.820;2023-07-24T11:23:14;9.23;;;4.90;;
7383;SDS011;3733;47.994;8.820;2023-07-24T11:25:40;7.43;;;4.40;;
7383;SDS011;3733;47.994;8.820;2023-07-24T11:28:06;11.73;;;5.60;;
7383;SDS011;3733;47.994;8.820;2023-07-24T11:30:33;11.07;;;5.73;;
7383;SDS011;3733;47.994;8.820;2023-07-24T11:33:00;12.43;;;6.33;;
7383;SDS011;3733;47.994;8.820;2023-07-24T11:35:27;11.67;;;6.63;;
7383;SDS011;3733;47.994;8.820;2023-07-24T11:37:53;9.77;;;5.40;;
7383;SDS011;3733;47.994;8.820;2023-07-24T11:40:18;9.57;;;5.73;;
7383;SDS011;3733;47.994;8.820;2023-07-24T11:42:46;12.33;;;5.10;;
7383;SDS011;3733;47.994;8.820;2023-07-24T11:45:13;9.80;;;5.00;;
7383;SDS011;3733;47.994;8.820;2023-07-24T11:50:07;8.43;;;4.90;;
7383;SDS011;3733;47.994;8.820;2023-07-24T11:52:46;9.80;;;5.20;;
7383;SDS011;3733;47.994;8.820;2023-07-24T11:55:14;14.70;;;5.20;;
7383;SDS011;3733;47.994;8.820;2023-07-24T11:57:43;12.70;;;5.77;;
7383;SDS011;3733;47.994;8.820;2023-07-24T12:00:21;12.10;;;5.80;;
7383;SDS011;3733;47.994;8.820;2023-07-24T12:02:47;8.80;;;4.87;;
7383;SDS011;3733;47.994;8.820;2023-07-24T12:05:13;10.97;;;5.63;;
7383;SDS011;3733;47.994;8.820;2023-07-24T12:07:39;10.20;;;5.07;;
7383;SDS011;3733;47.994;8.820;2023-07-24T12:10:08;10.37;;;4.90;;
7383;SDS011;3733;47.994;8.820;2023-07-24T12:12:44;8.23;;;5.53;;
7383;SDS011;3733;47.994;8.820;2023-07-24T12:15:12;10.13;;;5.33;;
7383;SDS011;3733;47.994;8.820;2023-07-24T12:17:38;9.23;;;5.00;;
7383;SDS011;3733;47.994;8.820;2023-07-24T12:20:04;6.80;;;4.57;;
7383;SDS011;3733;47.994;8.820;2023-07-24T12:22:33;11.53;;;5.00;;
7383;SDS011;3733;47.994;8.820;2023-07-24T12:24:59;9.00;;;4.97;;
7383;SDS011;3733;47.994;8.820;2023-07-24T12:27:25;10.83;;;4.67;;
7383;SDS011;3733;47.994;8.820;2023-07-24T12:29:51;8.10;;;5.10;;
7383;SDS011;3733;47.994;8.820;2023-07-24T12:32:17;8.37;;;5.70;;
7383;SDS011;3733;47.994;8.820;2023-07-24T12:34:43;9.50;;;5.60;;
7383;SDS011;3733;47.994;8.820;2023-07-24T12:37:11;11.63;;;5.20;;
7383;SDS011;3733;47.994;8.820;2023-07-24T12:39:37;9.20;;;5.73;;
7383;SDS011;3733;47.994;8.820;2023-07-24T12:42:02;6.70;;;4.97;;
7383;SDS011;3733;47.994;8.820;2023-07-24T12:44:29;15.63;;;6.70;;
7383;SDS011;3733;47.994;8.820;2023-07-24T12:46:55;14.67;;;6.13;;
7383;SDS011;3733;47.994;8.820;2023-07-24T12:49:20;9.80;;;6.30;;
7383;SDS011;3733;47.994;8.820;2023-07-24T12:51:46;14.17;;;6.60;;
7383;SDS011;3733;47.994;8.820;2023-07-24T12:54:11;13.27;;;6.60;;
7383;SDS011;3733;47.994;8.820;2023-07-24T12:56:37;7.30;;;5.30;;
7383;SDS011;3733;47.994;8.820;2023-07-24T12:59:03;10.23;;;6.00;;
7383;SDS011;3733;47.994;8.820;2023-07-24T13:01:29;10.40;;;5.50;;
7383;SDS011;3733;47.994;8.820;2023-07-24T13:03:54;12.60;;;5.57;;
7383;SDS011;3733;47.994;8.820;2023-07-24T13:06:20;11.40;;;5.53;;
7383;SDS011;3733;47.994;8.820;2023-07-24T13:08:47;8.30;;;3.90;;
7383;SDS011;3733;47.994;8.820;2023-07-24T13:11:13;6.00;;;3.90;;
7383;SDS011;3733;47.994;8.820;2023-07-24T13:13:38;5.93;;;4.37;;
7383;SDS011;3733;47.994;8.820;2023-07-24T13:16:04;4.50;;;2.93;;
7383;SDS011;3733;47.994;8.820;2023-07-24T13:18:29;7.00;;;4.03;;
7383;SDS011;3733;47.994;8.820;2023-07-24T13:20:55;5.80;;;3.43;;
7383;SDS011;3733;47.994;8.820;2023-07-24T13:23:21;4.73;;;4.00;;
7383;SDS011;3733;47.994;8.820;2023-07-24T13:25:47;5.47;;;3.17;;
7383;SDS011;3733;47.994;8.820;2023-07-24T13:28:13;4.23;;;3.27;;
7383;SDS011;3733;47.994;8.820;2023-07-24T13:30:38;6.30;;;3.10;;
7383;SDS011;3733;47.994;8.820;2023-07-24T13:33:04;7.33;;;3.30;;
7383;SDS011;3733;47.994;8.820;2023-07-24T13:35:29;7.17;;;3.70;;
7383;SDS011;3733;47.994;8.820;2023-07-24T13:37:55;6.80;;;3.43;;
7383;SDS011;3733;47.994;8.820;2023-07-24T13:40:21;5.40;;;3.50;;
7383;SDS011;3733;47.994;8.820;2023-07-24T13:42:46;4.47;;;3.20;;
7383;SDS011;3733;47.994;8.820;2023-07-24T13:45:12;5.50;;;3.40;;
7383;SDS011;3733;47.994;8.820;2023-07-24T13:47:37;9.00;;;3.17;;
7383;SDS011;3733;47.994;8.820;2023-07-24T13:50:03;4.30;;;2.93;;
7383;SDS011;3733;47.994;8.820;2023-07-24T13:52:29;5.30;;;3.47;;
7383;SDS011;3733;47.994;8.820;2023-07-24T13:54:55;4.23;;;3.57;;
7383;SDS011;3733;47.994;8.820;2023-07-24T13:57:21;4.90;;;3.43;;
7383;SDS011;3733;47.994;8.820;2023-07-24T13:59:46;6.70;;;4.10;;
7383;SDS011;3733;47.994;8.820;2023-07-24T14:02:12;5.60;;;3.67;;
7383;SDS011;3733;47.994;8.820;2023-07-24T14:04:38;5.30;;;3.70;;
7383;SDS011;3733;47.994;8.820;2023-07-24T14:07:03;18.33;;;3.97;;
7383;SDS011;3733;47.994;8.820;2023-07-24T14:09:29;6.40;;;4.30;;
7383;SDS011;3733;47.994;8.820;2023-07-24T14:11:56;5.67;;;4.00;;
7383;SDS011;3733;47.994;8.820;2023-07-24T14:14:22;6.63;;;4.10;;
7383;SDS011;3733;47.994;8.820;2023-07-24T14:16:48;6.27;;;4.33;;
7383;SDS011;3733;47.994;8.820;2023-07-24T14:19:14;5.27;;;3.90;;
7383;SDS011;3733;47.994;8.820;2023-07-24T14:21:40;4.77;;;3.80;;
7383;SDS011;3733;47.994;8.820;2023-07-24T14:24:06;5.63;;;4.07;;
7383;SDS011;3733;47.994;8.820;2023-07-24T14:26:31;12.53;;;3.77;;
7383;SDS011;3733;47.994;8.820;2023-07-24T14:28:57;7.90;;;4.80;;
7383;SDS011;3733;47.994;8.820;2023-07-24T14:31:23;7.73;;;4.87;;
7383;SDS011;3733;47.994;8.820;2023-07-24T14:33:49;8.67;;;4.60;;
7383;SDS011;3733;47.994;8.820;2023-07-24T14:36:15;5.47;;;4.10;;
7383;SDS011;3733;47.994;8.820;2023-07-24T14:38:41;9.70;;;4.33;;
7383;SDS011;3733;47.994;8.820;2023-07-24T14:41:06;8.60;;;4.10;;
7383;SDS011;3733;47.994;8.820;2023-07-24T14:43:32;6.40;;;4.40;;
7383;SDS011;3733;47.994;8.820;2023-07-24T14:45:57;6.50;;;3.80;;
7383;SDS011;3733;47.994;8.820;2023-07-24T14:48:23;6.23;;;4.00;;
7383;SDS011;3733;47.994;8.820;2023-07-24T14:50:49;5.73;;;3.93;;
7383;SDS011;3733;47.994;8.820;2023-07-24T14:53:14;5.13;;;3.53;;
7383;SDS011;3733;47.994;8.820;2023-07-24T14:55:40;11.83;;;4.30;;
7383;SDS011;3733;47.994;8.820;2023-07-24T14:58:06;8.03;;;4.10;;
7383;SDS011;3733;47.994;8.820;2023-07-24T15:00:32;5.03;;;3.90;;
7383;SDS011;3733;47.994;8.820;2023-07-24T15:02:57;6.40;;;3.93;;
7383;SDS011;3733;47.994;8.820;2023-07-24T15:05:23;8.17;;;4.27;;
7383;SDS011;3733;47.994;8.820;2023-07-24T15:07:49;8.70;;;4.70;;